createdAt,value
2023-05-14T00:00:43.638Z,24.20
2023-05-14T00:03:14.020Z,23.48
2023-05-14T00:05:44.526Z,24.73
2023-05-14T00:08:14.939Z,23.15
2023-05-14T00:10:45.108Z,23.23
2023-05-14T00:13:15.299Z,25.27
2023-05-14T00:15:45.688Z,23.85
2023-05-14T00:18:16.114Z,22.48
2023-05-14T00:20:46.406Z,26.17
2023-05-14T00:23:17.740Z,26.08
2023-05-14T00:25:47.967Z,25.75
2023-05-14T00:28:18.454Z,23.85
2023-05-14T00:30:48.984Z,22.73
2023-05-14T00:33:19.691Z,26.88
2023-05-14T00:35:49.882Z,24.70
2023-05-14T00:38:20.210Z,25.23
2023-05-14T00:40:53.277Z,24.02
2023-05-14T00:43:24.180Z,23.83
2023-05-14T00:45:56.269Z,27.45
2023-05-14T00:48:26.970Z,26.42
2023-05-14T00:50:57.776Z,27.92
2023-05-14T00:53:29.371Z,27.45
2023-05-14T00:55:59.849Z,27.85
2023-05-14T00:58:29.949Z,25.35
2023-05-14T01:01:00.824Z,25.42
2023-05-14T01:03:33.651Z,28.35
2023-05-14T01:07:01.668Z,27.17
2023-05-14T01:09:38.218Z,25.67
2023-05-14T01:12:35.820Z,27.30
2023-05-14T01:15:29.014Z,27.45
2023-05-14T01:18:08.920Z,24.27
2023-05-14T01:20:39.253Z,26.98
2023-05-14T01:23:08.984Z,26.70
2023-05-14T01:25:39.048Z,29.17
2023-05-14T01:28:35.957Z,30.05
2023-05-14T01:31:28.114Z,25.45
2023-05-14T01:34:01.052Z,32.08
2023-05-14T01:36:33.197Z,29.27
2023-05-14T01:39:03.997Z,27.08
2023-05-14T01:41:34.645Z,26.10
2023-05-14T01:44:05.765Z,23.35
2023-05-14T01:46:36.310Z,28.25
2023-05-14T01:49:06.549Z,24.75
2023-05-14T01:51:37.969Z,25.17
2023-05-14T01:54:08.203Z,23.98
2023-05-14T01:56:38.417Z,27.90
2023-05-14T01:59:08.584Z,24.38
2023-05-14T02:01:38.905Z,26.92
2023-05-14T02:04:09.156Z,25.20
2023-05-14T02:06:39.533Z,20.52
2023-05-14T02:09:09.802Z,20.90
2023-05-14T02:11:40.050Z,27.15
2023-05-14T02:14:10.215Z,24.67
2023-05-14T02:16:40.809Z,22.67
2023-05-14T02:19:11.378Z,20.13
2023-05-14T02:21:41.591Z,22.63
2023-05-14T02:24:12.167Z,22.25
2023-05-14T02:26:42.598Z,20.15
2023-05-14T02:29:12.795Z,21.98
2023-05-14T02:31:43.864Z,20.73
2023-05-14T02:34:14.176Z,27.73
2023-05-14T02:36:44.388Z,21.23
2023-05-14T02:39:14.569Z,21.70
2023-05-14T02:41:44.796Z,23.67
2023-05-14T02:44:14.932Z,24.45
2023-05-14T02:46:45.243Z,25.27
2023-05-14T02:49:15.449Z,22.08
2023-05-14T02:51:45.652Z,20.38
2023-05-14T02:54:16.916Z,19.35
2023-05-14T02:56:47.407Z,18.52
2023-05-14T02:59:17.701Z,24.02
2023-05-14T03:01:48.201Z,21.70
2023-05-14T03:04:18.968Z,23.35
2023-05-14T03:06:49.233Z,22.77
2023-05-14T03:09:20.137Z,18.50
2023-05-14T03:11:51.127Z,25.88
2023-05-14T03:14:21.299Z,18.05
2023-05-14T03:16:51.571Z,21.35
2023-05-14T03:19:21.791Z,17.20
2023-05-14T03:21:51.977Z,18.65
2023-05-14T03:24:22.088Z,20.40
2023-05-14T03:26:52.280Z,16.75
2023-05-14T03:29:22.484Z,19.85
2023-05-14T03:31:53.186Z,15.88
2023-05-14T03:34:23.754Z,18.77
2023-05-14T03:36:51.753Z,18.80
2023-05-14T03:39:20.244Z,16.00
2023-05-14T03:41:49.099Z,14.10
2023-05-14T03:44:16.968Z,16.73
2023-05-14T03:46:45.562Z,21.15
2023-05-14T03:49:13.880Z,14.27
2023-05-14T03:51:42.401Z,15.18
2023-05-14T03:54:12.541Z,17.20
2023-05-14T03:56:42.706Z,15.10
2023-05-14T03:59:12.815Z,15.10
2023-05-14T04:01:41.353Z,17.33
2023-05-14T04:04:10.183Z,15.27
2023-05-14T04:06:39.189Z,15.18
2023-05-14T04:09:07.222Z,13.93
2023-05-14T04:11:37.910Z,15.20
2023-05-14T04:14:06.333Z,14.80
2023-05-14T04:16:36.569Z,17.15
2023-05-14T04:19:06.838Z,20.70
2023-05-14T04:21:36.996Z,19.00
2023-05-14T04:24:07.923Z,17.73
2023-05-14T04:26:38.233Z,18.80
2023-05-14T04:29:08.503Z,19.98
2023-05-14T04:31:37.174Z,17.98
2023-05-14T04:34:05.464Z,15.98
2023-05-14T04:36:33.911Z,17.42
2023-05-14T04:39:02.547Z,16.38
2023-05-14T04:41:30.944Z,18.83
2023-05-14T04:44:04.450Z,19.52
2023-05-14T04:46:34.690Z,17.63
2023-05-14T04:49:04.948Z,17.13
2023-05-14T04:51:35.093Z,16.77
2023-05-14T04:54:05.490Z,17.02
2023-05-14T04:56:35.737Z,18.02
2023-05-14T04:59:06.646Z,21.65
2023-05-14T05:01:36.904Z,16.42
2023-05-14T05:04:07.273Z,18.77
2023-05-14T05:06:37.672Z,15.65
2023-05-14T05:09:09.659Z,16.73
2023-05-14T05:11:39.807Z,18.05
2023-05-14T05:14:10.155Z,13.75
2023-05-14T05:16:40.649Z,20.63
2023-05-14T05:19:11.230Z,14.88
2023-05-14T05:21:41.965Z,14.32
2023-05-14T05:24:13.510Z,19.73
2023-05-14T05:26:43.777Z,16.77
2023-05-14T05:29:14.276Z,15.68
2023-05-14T05:31:44.763Z,17.48
2023-05-14T05:34:15.441Z,17.75
2023-05-14T05:36:45.855Z,15.18
2023-05-14T05:39:16.381Z,15.55
2023-05-14T05:41:46.599Z,14.85
2023-05-14T05:44:17.052Z,15.55
2023-05-14T05:46:47.236Z,16.30
2023-05-14T05:49:17.500Z,15.65
2023-05-14T05:51:47.635Z,20.10
2023-05-14T05:54:17.820Z,16.50
2023-05-14T05:56:47.932Z,14.20
2023-05-14T05:59:18.074Z,19.77
2023-05-14T06:01:48.337Z,19.30
2023-05-14T06:04:18.591Z,15.93
2023-05-14T06:06:48.741Z,15.38
2023-05-14T06:09:18.901Z,16.63
2023-05-14T06:11:49.099Z,16.95
2023-05-14T06:14:19.210Z,17.63
2023-05-14T06:16:49.397Z,14.45
2023-05-14T06:19:19.936Z,18.83
2023-05-14T06:21:50.249Z,13.75
2023-05-14T06:24:20.548Z,17.65
2023-05-14T06:26:50.771Z,15.70
2023-05-14T06:29:21.015Z,17.50
2023-05-14T06:31:51.185Z,16.90
2023-05-14T06:34:21.312Z,22.23
2023-05-14T06:36:51.456Z,17.58
2023-05-14T06:39:21.653Z,17.38
2023-05-14T06:41:51.887Z,16.25
2023-05-14T06:44:22.039Z,15.00
2023-05-14T06:46:52.269Z,16.13
2023-05-14T06:49:22.408Z,14.93
2023-05-14T06:51:52.537Z,14.38
2023-05-14T06:54:22.643Z,12.52
2023-05-14T06:56:52.874Z,17.52
2023-05-14T06:59:23.535Z,13.00
2023-05-14T07:01:53.729Z,15.85
2023-05-14T07:04:23.966Z,12.15
2023-05-14T07:06:54.223Z,11.48
2023-05-14T07:09:22.725Z,15.00
2023-05-14T07:11:51.108Z,14.88
2023-05-14T07:14:19.488Z,13.32
2023-05-14T07:16:47.957Z,17.25
2023-05-14T07:19:16.457Z,10.93
2023-05-14T07:21:44.715Z,13.27
2023-05-14T07:24:13.271Z,11.55
2023-05-14T07:26:41.622Z,10.98
2023-05-14T07:29:09.941Z,12.25
2023-05-14T07:31:38.425Z,11.60
2023-05-14T07:34:07.772Z,14.70
2023-05-14T07:36:35.273Z,11.82
2023-05-14T07:39:03.840Z,11.57
2023-05-14T07:41:32.063Z,15.23
2023-05-14T07:44:00.468Z,12.88
2023-05-14T07:46:28.904Z,13.55
2023-05-14T07:48:58.145Z,12.68
2023-05-14T07:51:28.575Z,11.65
2023-05-14T07:53:58.669Z,10.07
2023-05-14T07:56:28.789Z,9.93
2023-05-14T07:58:58.936Z,10.35
2023-05-14T08:01:29.016Z,12.27
2023-05-14T08:03:59.310Z,12.70
2023-05-14T08:06:29.749Z,12.93
2023-05-14T08:09:00.038Z,12.75
2023-05-14T08:11:30.140Z,12.60
2023-05-14T08:14:00.447Z,8.02
2023-05-14T08:16:30.649Z,9.30
2023-05-14T08:19:01.159Z,9.43
2023-05-14T08:28:26.759Z,8.48
2023-05-14T08:30:56.874Z,10.93
2023-05-14T08:37:55.600Z,7.40
2023-05-14T08:40:31.101Z,8.25
2023-05-14T08:43:03.169Z,12.57
2023-05-14T08:45:38.223Z,12.40
2023-05-14T08:48:19.213Z,8.38
2023-05-14T09:08:43.228Z,6.63
2023-05-14T09:11:20.623Z,6.40
2023-05-14T09:13:50.942Z,7.83
2023-05-14T09:16:28.774Z,7.93
2023-05-14T09:18:59.675Z,5.65
2023-05-14T09:21:33.446Z,7.28
2023-05-14T09:24:04.416Z,7.88
2023-05-14T09:26:36.028Z,9.35
2023-05-14T09:29:06.026Z,7.38
2023-05-14T09:36:02.554Z,8.15
2023-05-14T09:38:34.207Z,12.40
2023-05-14T09:41:04.316Z,6.75
2023-05-14T09:43:34.404Z,9.05
2023-05-14T09:46:04.740Z,7.97
2023-05-14T09:48:34.970Z,8.75
2023-05-14T09:51:06.023Z,16.42
2023-05-14T09:53:36.082Z,6.38
2023-05-14T09:56:06.443Z,6.78
2023-05-14T09:58:36.657Z,8.63
2023-05-14T10:01:20.910Z,7.68
2023-05-14T10:04:24.411Z,5.80
2023-05-14T10:06:58.572Z,7.68
2023-05-14T10:09:30.503Z,7.35
2023-05-14T10:12:24.178Z,6.97
2023-05-14T10:15:03.789Z,6.38
2023-05-14T10:17:41.345Z,8.48
2023-05-14T10:20:17.512Z,7.37
2023-05-14T10:22:47.660Z,8.63
2023-05-14T10:25:17.513Z,7.78
2023-05-14T10:27:48.106Z,8.20
2023-05-14T10:30:26.035Z,7.10
2023-05-14T10:33:16.896Z,6.30
2023-05-14T10:36:07.688Z,8.13
2023-05-14T10:38:39.207Z,6.13
2023-05-14T10:41:21.639Z,8.13
2023-05-14T10:43:52.453Z,7.07
2023-05-14T10:46:21.097Z,7.97
2023-05-14T10:48:51.094Z,6.57
2023-05-14T10:51:23.212Z,7.35
2023-05-14T10:53:53.419Z,8.30
2023-05-14T10:56:24.466Z,9.95
2023-05-14T10:59:00.243Z,7.75
2023-05-14T11:01:32.188Z,6.75
2023-05-14T11:04:04.571Z,10.35
2023-05-14T11:06:33.243Z,6.22
2023-05-14T11:09:04.052Z,6.47
2023-05-14T11:11:35.494Z,7.55
2023-05-14T11:14:04.917Z,9.57
2023-05-14T11:16:35.273Z,9.40
2023-05-14T11:19:06.593Z,9.80
2023-05-14T11:21:36.694Z,7.32
2023-05-14T11:24:07.595Z,6.28
2023-05-14T11:26:36.140Z,10.85
2023-05-14T11:29:05.768Z,8.60
2023-05-14T11:31:36.621Z,8.82
2023-05-14T11:34:08.270Z,8.13
2023-05-14T11:36:37.993Z,9.95
2023-05-14T11:39:08.463Z,6.65
2023-05-14T11:41:46.272Z,7.57
2023-05-14T11:44:14.280Z,11.85
2023-05-14T11:46:59.672Z,8.50
2023-05-14T11:49:30.029Z,7.20
2023-05-14T11:54:37.352Z,9.30
2023-05-14T11:57:15.669Z,11.85
2023-05-14T11:59:48.440Z,7.50
2023-05-14T12:02:19.993Z,7.68
2023-05-14T12:04:53.494Z,11.32
2023-05-14T12:07:23.808Z,6.22
2023-05-14T12:09:52.092Z,6.30
2023-05-14T12:12:23.752Z,9.88
2023-05-14T12:14:53.127Z,7.88
2023-05-14T12:17:23.921Z,9.20
2023-05-14T12:19:54.428Z,10.52
2023-05-14T12:22:24.076Z,9.43
2023-05-14T12:25:00.592Z,9.63
2023-05-14T12:27:30.855Z,6.93
2023-05-14T12:35:13.216Z,7.10
2023-05-14T12:37:43.471Z,6.20
2023-05-14T12:40:14.096Z,9.00
2023-05-14T12:42:44.341Z,10.48
2023-05-14T12:45:14.619Z,8.07
2023-05-14T12:47:44.823Z,6.88
2023-05-14T12:50:15.045Z,6.45
2023-05-14T12:52:46.693Z,8.38
2023-05-14T12:55:17.167Z,6.45
2023-05-14T12:57:47.614Z,7.47
2023-05-14T13:00:18.399Z,5.70
2023-05-14T13:02:48.890Z,7.40
2023-05-14T13:05:19.121Z,8.07
2023-05-14T13:07:50.820Z,4.68
2023-05-14T13:10:21.246Z,5.82
2023-05-14T13:12:52.785Z,9.25
2023-05-14T13:15:26.243Z,8.93
2023-05-14T13:17:56.711Z,9.70
2023-05-14T13:20:27.766Z,5.90
2023-05-14T13:22:55.535Z,5.68
2023-05-14T13:25:24.435Z,8.18
2023-05-14T13:27:53.043Z,5.40
2023-05-14T13:30:21.915Z,5.30
2023-05-14T13:32:50.007Z,6.50
2023-05-14T13:35:19.354Z,6.90
2023-05-14T13:37:47.606Z,5.38
2023-05-14T13:40:17.454Z,7.18
2023-05-14T13:42:47.668Z,7.57
2023-05-14T13:45:16.081Z,7.50
2023-05-14T13:47:44.642Z,6.40
2023-05-14T13:50:13.482Z,8.15
2023-05-14T13:52:41.681Z,7.60
2023-05-14T13:55:10.302Z,7.32
2023-05-14T13:57:40.089Z,9.65
2023-05-14T14:00:11.724Z,11.68
2023-05-14T14:02:41.925Z,7.43
2023-05-14T14:05:12.171Z,6.35
2023-05-14T14:07:42.861Z,7.90
2023-05-14T14:10:12.876Z,6.88
2023-05-14T14:12:42.220Z,7.20
2023-05-14T14:15:51.883Z,7.25
2023-05-14T14:18:20.232Z,8.40
2023-05-14T14:20:50.855Z,7.70
2023-05-14T14:23:20.506Z,11.23
2023-05-14T14:25:48.946Z,10.05
2023-05-14T14:28:17.335Z,8.57
2023-05-14T14:30:45.961Z,6.75
2023-05-14T14:33:14.261Z,8.90
2023-05-14T14:35:42.705Z,7.07
2023-05-14T14:38:11.050Z,9.43
2023-05-14T14:40:39.629Z,9.45
2023-05-14T14:43:07.928Z,8.90
2023-05-14T14:45:36.414Z,6.93
2023-05-14T14:48:37.884Z,8.18
2023-05-14T14:51:09.222Z,8.73
2023-05-14T14:53:40.647Z,5.80
2023-05-14T14:56:10.781Z,7.70
2023-05-14T14:58:39.330Z,8.63
2023-05-14T15:01:07.765Z,5.30
2023-05-14T15:03:36.989Z,5.03
2023-05-14T15:06:04.676Z,8.18
2023-05-14T15:08:32.837Z,6.28
2023-05-14T15:11:01.437Z,5.07
2023-05-14T15:13:29.672Z,7.13
2023-05-14T15:15:58.253Z,5.88
2023-05-14T15:18:27.109Z,5.30
2023-05-14T15:20:57.003Z,5.95
2023-05-14T15:23:26.422Z,4.80
2023-05-14T15:25:54.773Z,6.25
2023-05-14T15:28:23.219Z,5.78
2023-05-14T15:30:51.786Z,5.63
2023-05-14T15:33:20.259Z,7.35
2023-05-14T15:35:49.682Z,4.85
2023-05-14T15:38:19.624Z,6.53
2023-05-14T15:40:51.057Z,5.68
2023-05-14T15:43:21.273Z,4.70
2023-05-14T15:45:51.084Z,6.82
2023-05-14T15:48:20.973Z,6.78
2023-05-14T15:50:54.017Z,8.55
2023-05-14T15:53:22.103Z,7.10
2023-05-14T15:55:52.847Z,5.65
2023-05-14T15:58:22.665Z,6.22
2023-05-14T16:00:52.276Z,5.15
2023-05-14T16:03:20.773Z,6.80
2023-05-14T16:05:49.319Z,6.28
2023-05-14T16:08:17.703Z,5.97
2023-05-14T16:10:47.522Z,5.00
2023-05-14T16:34:49.962Z,11.85
2023-05-14T16:37:20.774Z,5.63
2023-05-14T16:39:51.462Z,9.52
2023-05-14T16:42:21.473Z,5.07
2023-05-14T16:44:51.479Z,5.68
2023-05-14T16:47:20.066Z,6.43
2023-05-14T16:49:50.362Z,5.82
2023-05-14T16:52:18.269Z,5.90
2023-05-14T16:54:46.944Z,6.90
2023-05-14T16:57:15.858Z,6.28
2023-05-14T16:59:44.380Z,5.80
2023-05-14T17:02:12.880Z,6.22
2023-05-14T17:04:42.369Z,7.93
2023-05-14T17:07:10.526Z,7.07
2023-05-14T17:09:38.638Z,6.50
2023-05-14T17:12:13.118Z,6.50
2023-05-14T17:14:41.144Z,8.20
2023-05-14T17:17:09.572Z,7.65
2023-05-14T17:19:38.348Z,6.78
2023-05-14T17:22:07.703Z,5.90
2023-05-14T17:24:36.673Z,5.18
2023-05-14T17:27:05.363Z,5.22
2023-05-14T17:29:33.043Z,4.50
2023-05-14T17:32:03.625Z,6.15
2023-05-14T17:34:33.911Z,4.80
2023-05-14T17:37:04.293Z,4.53
2023-05-14T17:39:34.707Z,5.85
2023-05-14T17:42:07.901Z,6.75
2023-05-14T17:44:38.369Z,6.03
2023-05-14T17:47:09.455Z,5.78
2023-05-14T17:49:39.651Z,5.28
2023-05-14T17:52:09.851Z,5.57
2023-05-14T17:54:40.173Z,5.97
2023-05-14T17:57:10.890Z,6.70
2023-05-14T17:59:41.644Z,8.85
2023-05-14T18:02:11.889Z,5.57
2023-05-14T18:04:40.751Z,8.57
2023-05-14T18:07:08.862Z,7.32
2023-05-14T18:09:37.360Z,7.88
2023-05-14T18:12:09.847Z,6.90
2023-05-14T18:14:40.509Z,7.93
2023-05-14T18:17:11.645Z,5.53
2023-05-14T18:19:42.209Z,6.30
2023-05-14T18:22:12.114Z,7.30
2023-05-14T18:24:42.151Z,8.48
2023-05-14T18:27:12.202Z,6.47
2023-05-14T18:29:43.615Z,12.10
2023-05-14T18:32:13.152Z,7.93
2023-05-14T18:34:43.204Z,7.95
2023-05-14T18:37:12.988Z,9.43
2023-05-14T18:39:42.881Z,8.77
2023-05-14T18:42:16.780Z,9.13
2023-05-14T18:44:45.952Z,9.18
2023-05-14T18:47:16.149Z,6.93
2023-05-14T18:49:47.299Z,11.52
2023-05-14T18:52:17.491Z,7.78
2023-05-14T18:54:47.343Z,12.50
2023-05-14T18:57:17.278Z,8.82
2023-05-14T18:59:47.358Z,7.88
2023-05-14T19:02:17.748Z,10.10
2023-05-14T19:04:52.757Z,7.40
2023-05-14T19:07:23.603Z,9.27
2023-05-14T19:09:52.079Z,8.23
2023-05-14T19:12:22.111Z,9.30
2023-05-14T19:14:50.543Z,9.88
2023-05-14T19:17:20.525Z,7.65
2023-05-14T19:19:50.996Z,8.25
2023-05-14T19:22:19.898Z,8.70
2023-05-14T19:24:47.568Z,8.68
2023-05-14T19:27:17.505Z,10.55
2023-05-14T19:29:47.728Z,9.45
2023-05-14T19:32:17.373Z,9.63
2023-05-14T19:34:48.046Z,8.85
2023-05-14T19:37:17.608Z,8.02
2023-05-14T19:39:47.586Z,11.63
2023-05-14T19:42:17.787Z,10.10
2023-05-14T19:44:47.771Z,10.75
2023-05-14T19:47:16.258Z,10.07
2023-05-14T19:49:44.763Z,9.10
2023-05-14T19:52:13.070Z,10.75
2023-05-14T19:54:41.381Z,10.27
2023-05-14T19:57:10.477Z,10.48
2023-05-14T19:59:39.410Z,10.15
2023-05-14T20:02:06.757Z,10.13
2023-05-14T20:04:35.093Z,9.38
2023-05-14T20:07:03.744Z,12.93
2023-05-14T20:09:31.872Z,14.02
2023-05-14T20:12:00.281Z,9.82
2023-05-14T20:14:28.710Z,9.75
2023-05-14T20:16:58.059Z,9.80
2023-05-14T20:19:30.453Z,11.88
2023-05-14T20:22:00.169Z,10.57
2023-05-14T20:24:29.117Z,10.25
2023-05-14T20:26:57.101Z,11.32
2023-05-14T20:29:25.430Z,12.68
2023-05-14T20:31:53.717Z,10.60
2023-05-14T20:34:22.719Z,10.27
2023-05-14T20:36:52.512Z,11.85
2023-05-14T20:39:22.442Z,10.55
2023-05-14T20:41:52.410Z,13.73
2023-05-14T20:44:22.138Z,11.82
2023-05-14T20:46:51.426Z,9.77
2023-05-14T20:49:21.238Z,13.88
2023-05-14T20:51:50.987Z,9.82
2023-05-14T20:54:21.234Z,10.80
2023-05-14T20:56:50.859Z,11.27
2023-05-14T20:59:20.852Z,11.18
2023-05-14T21:01:51.600Z,10.70
2023-05-14T21:04:21.836Z,13.65
2023-05-14T21:06:52.375Z,11.68
2023-05-14T21:09:23.837Z,10.95
2023-05-14T21:11:56.727Z,11.52
2023-05-14T21:14:26.308Z,11.32
2023-05-14T21:16:56.241Z,12.35
2023-05-14T21:19:26.270Z,13.60
2023-05-14T21:21:56.054Z,13.50
2023-05-14T21:24:25.964Z,10.65
2023-05-14T21:26:56.039Z,14.93
2023-05-14T21:29:25.828Z,11.80
2023-05-14T21:31:56.234Z,15.73
2023-05-14T21:34:25.827Z,13.95
2023-05-14T21:36:56.092Z,11.73
2023-05-14T21:39:26.089Z,13.50
2023-05-14T21:41:55.895Z,13.52
2023-05-14T21:44:24.618Z,12.77
2023-05-14T21:46:54.911Z,13.30
2023-05-14T21:49:23.126Z,11.57
2023-05-14T21:51:54.288Z,12.85
2023-05-14T21:54:23.952Z,13.13
2023-05-14T21:56:52.469Z,14.93
2023-05-14T21:59:21.622Z,15.43
2023-05-14T22:02:06.115Z,16.40
2023-05-14T22:04:37.651Z,16.80
2023-05-14T22:07:08.081Z,14.90
2023-05-14T22:09:37.689Z,13.50
2023-05-14T22:12:09.655Z,16.17
2023-05-14T22:14:38.131Z,14.15
2023-05-14T22:17:07.259Z,15.63
2023-05-14T22:19:34.801Z,13.75
2023-05-14T22:22:04.795Z,16.88
2023-05-14T22:24:32.983Z,13.45
2023-05-14T22:27:01.530Z,17.17
2023-05-14T22:29:30.916Z,14.60
2023-05-14T22:31:59.273Z,15.10
2023-05-14T22:34:27.475Z,15.55
2023-05-14T22:36:56.261Z,15.70
2023-05-14T22:39:24.555Z,15.15
2023-05-14T22:41:55.300Z,17.08
2023-05-14T22:44:26.337Z,13.75
2023-05-14T22:46:57.294Z,15.63
2023-05-14T22:49:27.142Z,14.07
2023-05-14T22:51:57.049Z,16.55
2023-05-14T22:54:26.849Z,17.45
2023-05-14T22:56:56.660Z,14.90
2023-05-14T22:59:26.472Z,15.18
2023-05-14T23:01:56.486Z,16.90
2023-05-14T23:04:26.404Z,16.38
2023-05-14T23:06:57.801Z,16.05
2023-05-14T23:09:26.485Z,14.80
2023-05-14T23:11:56.472Z,16.83
2023-05-14T23:14:26.339Z,15.60
2023-05-14T23:16:56.621Z,17.08
2023-05-14T23:19:26.807Z,14.60
2023-05-14T23:21:58.441Z,15.38
2023-05-14T23:24:28.537Z,15.02
2023-05-14T23:26:58.643Z,15.82
2023-05-14T23:29:28.330Z,14.85
2023-05-14T23:31:58.152Z,17.02
2023-05-14T23:34:28.379Z,16.00
2023-05-14T23:36:58.223Z,14.73
2023-05-14T23:39:28.248Z,15.90
2023-05-14T23:41:58.161Z,15.07
2023-05-14T23:44:27.968Z,20.50
2023-05-14T23:46:58.129Z,19.52
2023-05-14T23:49:28.089Z,18.27
2023-05-14T23:51:58.448Z,18.13
2023-05-14T23:54:26.488Z,17.17
2023-05-14T23:56:55.113Z,18.65
2023-05-14T23:59:23.516Z,17.98
